Terminal Aerodrome Forecast
Issued by NWS

Current Version | Previous Version | Graphics & Text | Print | Product List | Glossary On
Versions: 1 2 3 4 5 6 7 8 9 10 11 12 13 14 15 16 17 18 19 20 21 22 23 24 25 26 27 28 29 30 31 32
000
FTUS41 KRNK 260614 AAA
TAFLWB
TAF AMD
KLWB 260614Z 2606/2706 10006KT P6SM SCT025 OVC035
      TEMPO 2607/2609 3SM -SN BR OVC006
     FM261100 06003KT 4SM -SN OVC012
     FM261400 08004KT P6SM OVC020=

USA.gov is the U.S. government's official web portal to all federal, state and local government web resources and services.